sensor_id;sensor_type;location;lat;lon;timestamp;P1;durP1;ratioP1;P2;durP2;ratioP2
14348;SDS011;7258;50.376;8.742;2022-10-14T00:00:39;86.70;;;43.58;;
14348;SDS011;7258;50.376;8.742;2022-10-14T00:02:43;81.63;;;43.20;;
14348;SDS011;7258;50.376;8.742;2022-10-14T00:04:45;84.60;;;43.63;;
14348;SDS011;7258;50.376;8.742;2022-10-14T00:06:48;91.13;;;44.60;;
14348;SDS011;7258;50.376;8.742;2022-10-14T00:08:52;81.77;;;44.57;;
14348;SDS011;7258;50.376;8.742;2022-10-14T00:10:56;86.47;;;43.92;;
14348;SDS011;7258;50.376;8.742;2022-10-14T00:12:58;83.55;;;44.42;;
14348;SDS011;7258;50.376;8.742;2022-10-14T00:15:01;91.80;;;46.57;;
14348;SDS011;7258;50.376;8.742;2022-10-14T00:17:05;84.55;;;45.35;;
14348;SDS011;7258;50.376;8.742;2022-10-14T00:19:08;91.67;;;46.73;;
14348;SDS011;7258;50.376;8.742;2022-10-14T00:21:11;92.90;;;45.87;;
14348;SDS011;7258;50.376;8.742;2022-10-14T00:23:14;87.17;;;44.67;;
14348;SDS011;7258;50.376;8.742;2022-10-14T00:25:18;79.63;;;42.80;;
14348;SDS011;7258;50.376;8.742;2022-10-14T00:27:21;86.50;;;44.17;;
14348;SDS011;7258;50.376;8.742;2022-10-14T00:29:24;89.20;;;47.85;;
14348;SDS011;7258;50.376;8.742;2022-10-14T00:31:27;87.93;;;44.97;;
14348;SDS011;7258;50.376;8.742;2022-10-14T00:33:30;82.50;;;44.77;;
14348;SDS011;7258;50.376;8.742;2022-10-14T00:35:33;92.45;;;45.20;;
14348;SDS011;7258;50.376;8.742;2022-10-14T00:37:36;84.30;;;44.20;;
14348;SDS011;7258;50.376;8.742;2022-10-14T00:39:39;90.73;;;46.33;;
14348;SDS011;7258;50.376;8.742;2022-10-14T00:41:43;85.63;;;45.93;;
14348;SDS011;7258;50.376;8.742;2022-10-14T00:43:49;90.07;;;45.70;;
14348;SDS011;7258;50.376;8.742;2022-10-14T00:45:54;83.93;;;45.80;;
14348;SDS011;7258;50.376;8.742;2022-10-14T00:47:57;80.87;;;45.07;;
14348;SDS011;7258;50.376;8.742;2022-10-14T00:50:00;93.20;;;46.13;;
14348;SDS011;7258;50.376;8.742;2022-10-14T00:52:04;96.53;;;49.73;;
14348;SDS011;7258;50.376;8.742;2022-10-14T00:54:12;94.17;;;48.33;;
14348;SDS011;7258;50.376;8.742;2022-10-14T00:56:19;99.03;;;49.37;;
14348;SDS011;7258;50.376;8.742;2022-10-14T00:58:27;95.10;;;47.77;;
14348;SDS011;7258;50.376;8.742;2022-10-14T01:00:31;107.33;;;50.23;;
14348;SDS011;7258;50.376;8.742;2022-10-14T01:02:34;108.80;;;50.72;;
14348;SDS011;7258;50.376;8.742;2022-10-14T01:04:37;101.07;;;50.83;;
14348;SDS011;7258;50.376;8.742;2022-10-14T01:06:44;88.53;;;48.03;;
14348;SDS011;7258;50.376;8.742;2022-10-14T01:08:57;91.70;;;47.03;;
14348;SDS011;7258;50.376;8.742;2022-10-14T01:11:06;95.20;;;47.23;;
14348;SDS011;7258;50.376;8.742;2022-10-14T01:13:16;89.97;;;47.10;;
14348;SDS011;7258;50.376;8.742;2022-10-14T01:15:30;98.03;;;49.20;;
14348;SDS011;7258;50.376;8.742;2022-10-14T01:17:41;92.33;;;48.70;;
14348;SDS011;7258;50.376;8.742;2022-10-14T01:20:05;94.67;;;48.40;;
14348;SDS011;7258;50.376;8.742;2022-10-14T01:22:18;108.85;;;51.83;;
14348;SDS011;7258;50.376;8.742;2022-10-14T01:24:34;106.37;;;51.33;;
14348;SDS011;7258;50.376;8.742;2022-10-14T01:26:50;101.13;;;51.23;;
14348;SDS011;7258;50.376;8.742;2022-10-14T01:29:14;101.45;;;48.83;;
14348;SDS011;7258;50.376;8.742;2022-10-14T01:31:29;104.17;;;50.80;;
14348;SDS011;7258;50.376;8.742;2022-10-14T01:33:36;99.20;;;50.20;;
14348;SDS011;7258;50.376;8.742;2022-10-14T01:35:46;104.67;;;53.00;;
14348;SDS011;7258;50.376;8.742;2022-10-14T01:37:56;98.35;;;50.80;;
14348;SDS011;7258;50.376;8.742;2022-10-14T01:40:04;101.80;;;49.47;;
14348;SDS011;7258;50.376;8.742;2022-10-14T01:42:14;107.30;;;50.77;;
14348;SDS011;7258;50.376;8.742;2022-10-14T01:44:22;105.37;;;51.60;;
14348;SDS011;7258;50.376;8.742;2022-10-14T01:46:27;95.67;;;49.10;;
14348;SDS011;7258;50.376;8.742;2022-10-14T01:48:34;105.23;;;50.50;;
14348;SDS011;7258;50.376;8.742;2022-10-14T01:50:40;102.30;;;50.93;;
14348;SDS011;7258;50.376;8.742;2022-10-14T01:52:46;100.55;;;52.58;;
14348;SDS011;7258;50.376;8.742;2022-10-14T01:54:53;97.80;;;50.92;;
14348;SDS011;7258;50.376;8.742;2022-10-14T01:57:01;99.28;;;51.47;;
14348;SDS011;7258;50.376;8.742;2022-10-14T01:59:07;101.37;;;51.53;;
14348;SDS011;7258;50.376;8.742;2022-10-14T02:01:13;106.77;;;52.00;;
14348;SDS011;7258;50.376;8.742;2022-10-14T02:03:18;98.33;;;51.50;;
14348;SDS011;7258;50.376;8.742;2022-10-14T02:05:21;99.10;;;51.00;;
14348;SDS011;7258;50.376;8.742;2022-10-14T02:07:30;84.43;;;47.57;;
14348;SDS011;7258;50.376;8.742;2022-10-14T02:09:41;94.72;;;49.20;;
14348;SDS011;7258;50.376;8.742;2022-10-14T02:11:53;97.30;;;51.10;;
14348;SDS011;7258;50.376;8.742;2022-10-14T02:14:07;94.63;;;48.87;;
14348;SDS011;7258;50.376;8.742;2022-10-14T02:16:21;101.13;;;51.30;;
14348;SDS011;7258;50.376;8.742;2022-10-14T02:18:29;105.17;;;52.50;;
14348;SDS011;7258;50.376;8.742;2022-10-14T02:20:41;91.93;;;49.17;;
14348;SDS011;7258;50.376;8.742;2022-10-14T02:22:50;109.43;;;50.37;;
14348;SDS011;7258;50.376;8.742;2022-10-14T02:25:00;97.63;;;50.17;;
14348;SDS011;7258;50.376;8.742;2022-10-14T02:27:09;101.13;;;51.03;;
14348;SDS011;7258;50.376;8.742;2022-10-14T02:29:15;90.37;;;48.37;;
14348;SDS011;7258;50.376;8.742;2022-10-14T02:31:20;93.63;;;47.87;;
14348;SDS011;7258;50.376;8.742;2022-10-14T02:33:25;79.27;;;45.37;;
14348;SDS011;7258;50.376;8.742;2022-10-14T02:35:33;83.43;;;45.07;;
14348;SDS011;7258;50.376;8.742;2022-10-14T02:37:39;76.60;;;43.90;;
14348;SDS011;7258;50.376;8.742;2022-10-14T02:39:43;74.20;;;43.23;;
14348;SDS011;7258;50.376;8.742;2022-10-14T02:41:50;72.07;;;42.53;;
14348;SDS011;7258;50.376;8.742;2022-10-14T02:43:53;67.70;;;41.10;;
14348;SDS011;7258;50.376;8.742;2022-10-14T02:45:56;63.47;;;39.73;;
14348;SDS011;7258;50.376;8.742;2022-10-14T02:48:01;58.20;;;38.33;;
14348;SDS011;7258;50.376;8.742;2022-10-14T02:50:06;61.43;;;38.83;;
14348;SDS011;7258;50.376;8.742;2022-10-14T02:52:10;53.97;;;36.23;;
14348;SDS011;7258;50.376;8.742;2022-10-14T02:54:13;53.20;;;35.43;;
14348;SDS011;7258;50.376;8.742;2022-10-14T02:56:16;46.77;;;32.60;;
14348;SDS011;7258;50.376;8.742;2022-10-14T02:58:19;48.33;;;32.33;;
14348;SDS011;7258;50.376;8.742;2022-10-14T03:00:22;44.53;;;31.90;;
14348;SDS011;7258;50.376;8.742;2022-10-14T03:02:26;38.47;;;29.87;;
14348;SDS011;7258;50.376;8.742;2022-10-14T03:04:28;44.10;;;30.97;;
14348;SDS011;7258;50.376;8.742;2022-10-14T03:06:33;40.47;;;29.20;;
14348;SDS011;7258;50.376;8.742;2022-10-14T03:08:35;37.50;;;28.33;;
14348;SDS011;7258;50.376;8.742;2022-10-14T03:10:38;37.63;;;29.17;;
14348;SDS011;7258;50.376;8.742;2022-10-14T03:12:41;36.50;;;28.40;;
14348;SDS011;7258;50.376;8.742;2022-10-14T03:14:44;38.20;;;28.13;;
14348;SDS011;7258;50.376;8.742;2022-10-14T03:16:47;38.57;;;28.97;;
14348;SDS011;7258;50.376;8.742;2022-10-14T03:18:50;38.17;;;29.42;;
14348;SDS011;7258;50.376;8.742;2022-10-14T03:20:53;38.75;;;27.48;;
14348;SDS011;7258;50.376;8.742;2022-10-14T03:22:57;33.30;;;26.57;;
14348;SDS011;7258;50.376;8.742;2022-10-14T03:25:00;36.20;;;28.23;;
14348;SDS011;7258;50.376;8.742;2022-10-14T03:27:03;39.27;;;28.07;;
14348;SDS011;7258;50.376;8.742;2022-10-14T03:29:06;37.00;;;28.75;;
14348;SDS011;7258;50.376;8.742;2022-10-14T03:31:09;35.90;;;28.93;;
14348;SDS011;7258;50.376;8.742;2022-10-14T03:33:12;38.58;;;28.95;;
14348;SDS011;7258;50.376;8.742;2022-10-14T03:35:16;33.90;;;26.80;;
14348;SDS011;7258;50.376;8.742;2022-10-14T03:37:19;34.70;;;28.27;;
14348;SDS011;7258;50.376;8.742;2022-10-14T03:39:23;36.65;;;27.67;;
14348;SDS011;7258;50.376;8.742;2022-10-14T03:41:26;38.47;;;28.57;;
14348;SDS011;7258;50.376;8.742;2022-10-14T03:43:29;33.83;;;27.40;;
14348;SDS011;7258;50.376;8.742;2022-10-14T03:45:32;35.77;;;27.97;;
14348;SDS011;7258;50.376;8.742;2022-10-14T03:47:34;37.70;;;28.07;;
14348;SDS011;7258;50.376;8.742;2022-10-14T03:49:37;37.00;;;27.80;;
14348;SDS011;7258;50.376;8.742;2022-10-14T03:51:40;36.93;;;28.10;;
14348;SDS011;7258;50.376;8.742;2022-10-14T03:53:44;34.20;;;27.63;;
14348;SDS011;7258;50.376;8.742;2022-10-14T03:55:48;35.40;;;28.00;;
14348;SDS011;7258;50.376;8.742;2022-10-14T03:57:50;38.43;;;28.73;;
14348;SDS011;7258;50.376;8.742;2022-10-14T03:59:53;34.87;;;28.00;;
14348;SDS011;7258;50.376;8.742;2022-10-14T04:01:57;36.33;;;29.17;;
14348;SDS011;7258;50.376;8.742;2022-10-14T04:03:59;35.43;;;28.17;;
14348;SDS011;7258;50.376;8.742;2022-10-14T04:06:02;34.27;;;27.60;;
14348;SDS011;7258;50.376;8.742;2022-10-14T04:08:06;34.40;;;29.00;;
14348;SDS011;7258;50.376;8.742;2022-10-14T04:10:09;35.90;;;28.20;;
14348;SDS011;7258;50.376;8.742;2022-10-14T04:12:13;35.93;;;27.70;;
14348;SDS011;7258;50.376;8.742;2022-10-14T04:14:16;32.00;;;26.20;;
14348;SDS011;7258;50.376;8.742;2022-10-14T04:16:19;32.67;;;25.87;;
14348;SDS011;7258;50.376;8.742;2022-10-14T04:18:22;33.08;;;27.10;;
14348;SDS011;7258;50.376;8.742;2022-10-14T04:20:25;34.50;;;27.48;;
14348;SDS011;7258;50.376;8.742;2022-10-14T04:22:28;32.33;;;25.83;;
14348;SDS011;7258;50.376;8.742;2022-10-14T04:24:31;32.63;;;27.42;;
14348;SDS011;7258;50.376;8.742;2022-10-14T04:26:34;33.30;;;26.85;;
14348;SDS011;7258;50.376;8.742;2022-10-14T04:28:38;30.05;;;24.40;;
14348;SDS011;7258;50.376;8.742;2022-10-14T04:30:41;36.28;;;25.15;;
14348;SDS011;7258;50.376;8.742;2022-10-14T04:32:44;30.10;;;24.73;;
14348;SDS011;7258;50.376;8.742;2022-10-14T04:34:47;29.27;;;24.25;;
14348;SDS011;7258;50.376;8.742;2022-10-14T04:36:50;29.27;;;24.77;;
14348;SDS011;7258;50.376;8.742;2022-10-14T04:38:53;28.77;;;24.13;;
14348;SDS011;7258;50.376;8.742;2022-10-14T04:40:56;28.03;;;23.40;;
14348;SDS011;7258;50.376;8.742;2022-10-14T04:42:59;30.70;;;23.40;;
14348;SDS011;7258;50.376;8.742;2022-10-14T04:45:04;24.10;;;21.30;;
14348;SDS011;7258;50.376;8.742;2022-10-14T04:47:07;27.43;;;22.47;;
14348;SDS011;7258;50.376;8.742;2022-10-14T04:49:10;24.37;;;20.87;;
14348;SDS011;7258;50.376;8.742;2022-10-14T04:51:14;26.47;;;21.47;;
14348;SDS011;7258;50.376;8.742;2022-10-14T04:53:17;27.00;;;22.37;;
14348;SDS011;7258;50.376;8.742;2022-10-14T04:55:22;25.03;;;20.77;;
14348;SDS011;7258;50.376;8.742;2022-10-14T04:57:25;23.57;;;20.47;;
14348;SDS011;7258;50.376;8.742;2022-10-14T04:59:28;31.73;;;21.97;;
14348;SDS011;7258;50.376;8.742;2022-10-14T05:01:32;24.50;;;20.20;;
14348;SDS011;7258;50.376;8.742;2022-10-14T05:03:35;23.55;;;19.45;;
14348;SDS011;7258;50.376;8.742;2022-10-14T05:05:38;23.90;;;18.98;;
14348;SDS011;7258;50.376;8.742;2022-10-14T05:07:41;22.17;;;18.42;;
14348;SDS011;7258;50.376;8.742;2022-10-14T05:09:44;22.50;;;18.57;;
14348;SDS011;7258;50.376;8.742;2022-10-14T05:11:52;23.00;;;18.37;;
14348;SDS011;7258;50.376;8.742;2022-10-14T05:13:55;23.95;;;17.77;;
14348;SDS011;7258;50.376;8.742;2022-10-14T05:15:58;22.38;;;17.55;;
14348;SDS011;7258;50.376;8.742;2022-10-14T05:18:02;21.50;;;18.45;;
14348;SDS011;7258;50.376;8.742;2022-10-14T05:20:05;20.45;;;17.38;;
14348;SDS011;7258;50.376;8.742;2022-10-14T05:22:09;21.90;;;18.20;;
14348;SDS011;7258;50.376;8.742;2022-10-14T05:24:11;22.17;;;18.20;;
14348;SDS011;7258;50.376;8.742;2022-10-14T05:26:14;20.20;;;18.07;;
14348;SDS011;7258;50.376;8.742;2022-10-14T05:28:17;19.60;;;17.58;;
14348;SDS011;7258;50.376;8.742;2022-10-14T05:30:20;21.30;;;17.27;;
14348;SDS011;7258;50.376;8.742;2022-10-14T05:32:23;21.08;;;18.77;;
14348;SDS011;7258;50.376;8.742;2022-10-14T05:34:27;27.07;;;18.67;;
14348;SDS011;7258;50.376;8.742;2022-10-14T05:36:30;25.73;;;18.60;;
14348;SDS011;7258;50.376;8.742;2022-10-14T05:38:33;25.42;;;19.92;;
14348;SDS011;7258;50.376;8.742;2022-10-14T05:40:35;23.57;;;20.27;;
14348;SDS011;7258;50.376;8.742;2022-10-14T05:42:38;24.93;;;20.57;;
14348;SDS011;7258;50.376;8.742;2022-10-14T05:44:41;26.27;;;21.57;;
14348;SDS011;7258;50.376;8.742;2022-10-14T05:46:44;30.30;;;23.00;;
14348;SDS011;7258;50.376;8.742;2022-10-14T05:48:49;26.50;;;22.17;;
14348;SDS011;7258;50.376;8.742;2022-10-14T05:50:53;26.57;;;22.93;;
14348;SDS011;7258;50.376;8.742;2022-10-14T05:53:01;29.67;;;21.67;;
14348;SDS011;7258;50.376;8.742;2022-10-14T05:55:04;28.87;;;23.17;;
14348;SDS011;7258;50.376;8.742;2022-10-14T05:57:08;31.33;;;24.00;;
14348;SDS011;7258;50.376;8.742;2022-10-14T05:59:11;31.10;;;24.13;;
14348;SDS011;7258;50.376;8.742;2022-10-14T06:01:14;28.87;;;23.90;;
14348;SDS011;7258;50.376;8.742;2022-10-14T06:03:18;29.10;;;23.05;;
14348;SDS011;7258;50.376;8.742;2022-10-14T06:05:21;31.60;;;24.73;;
14348;SDS011;7258;50.376;8.742;2022-10-14T06:07:25;30.38;;;24.33;;
14348;SDS011;7258;50.376;8.742;2022-10-14T06:09:29;29.70;;;25.02;;
14348;SDS011;7258;50.376;8.742;2022-10-14T06:11:32;32.85;;;24.95;;
14348;SDS011;7258;50.376;8.742;2022-10-14T06:13:35;29.85;;;24.33;;
14348;SDS011;7258;50.376;8.742;2022-10-14T06:15:38;31.48;;;25.10;;
14348;SDS011;7258;50.376;8.742;2022-10-14T06:17:41;27.20;;;24.13;;
14348;SDS011;7258;50.376;8.742;2022-10-14T06:19:44;30.07;;;25.20;;
14348;SDS011;7258;50.376;8.742;2022-10-14T06:21:47;30.92;;;25.02;;
14348;SDS011;7258;50.376;8.742;2022-10-14T06:23:54;29.17;;;25.60;;
14348;SDS011;7258;50.376;8.742;2022-10-14T06:25:56;34.13;;;26.47;;
14348;SDS011;7258;50.376;8.742;2022-10-14T06:28:03;30.23;;;24.50;;
14348;SDS011;7258;50.376;8.742;2022-10-14T06:30:07;29.45;;;24.80;;
14348;SDS011;7258;50.376;8.742;2022-10-14T06:32:10;34.25;;;27.05;;
14348;SDS011;7258;50.376;8.742;2022-10-14T06:34:13;34.30;;;26.33;;
14348;SDS011;7258;50.376;8.742;2022-10-14T06:36:16;37.08;;;27.70;;
14348;SDS011;7258;50.376;8.742;2022-10-14T06:38:19;37.05;;;28.27;;
14348;SDS011;7258;50.376;8.742;2022-10-14T06:40:24;37.05;;;27.23;;
14348;SDS011;7258;50.376;8.742;2022-10-14T06:42:26;41.80;;;29.48;;
14348;SDS011;7258;50.376;8.742;2022-10-14T06:44:29;41.35;;;29.15;;
14348;SDS011;7258;50.376;8.742;2022-10-14T06:46:32;45.55;;;29.65;;
14348;SDS011;7258;50.376;8.742;2022-10-14T06:48:35;42.37;;;30.63;;
14348;SDS011;7258;50.376;8.742;2022-10-14T06:50:37;42.38;;;29.73;;
14348;SDS011;7258;50.376;8.742;2022-10-14T06:52:43;41.00;;;29.70;;
14348;SDS011;7258;50.376;8.742;2022-10-14T06:54:46;41.10;;;31.20;;
14348;SDS011;7258;50.376;8.742;2022-10-14T06:56:50;41.67;;;31.53;;
14348;SDS011;7258;50.376;8.742;2022-10-14T06:58:53;42.27;;;30.10;;
14348;SDS011;7258;50.376;8.742;2022-10-14T07:00:59;44.72;;;31.80;;
14348;SDS011;7258;50.376;8.742;2022-10-14T07:03:02;43.60;;;31.77;;
14348;SDS011;7258;50.376;8.742;2022-10-14T07:05:05;40.70;;;30.33;;
14348;SDS011;7258;50.376;8.742;2022-10-14T07:07:09;44.10;;;32.03;;
14348;SDS011;7258;50.376;8.742;2022-10-14T07:09:12;41.85;;;31.10;;
14348;SDS011;7258;50.376;8.742;2022-10-14T07:11:15;46.92;;;31.85;;
14348;SDS011;7258;50.376;8.742;2022-10-14T07:13:19;40.60;;;32.07;;
14348;SDS011;7258;50.376;8.742;2022-10-14T07:15:22;43.47;;;32.67;;
14348;SDS011;7258;50.376;8.742;2022-10-14T07:17:24;41.17;;;31.33;;
14348;SDS011;7258;50.376;8.742;2022-10-14T07:19:27;43.00;;;30.98;;
14348;SDS011;7258;50.376;8.742;2022-10-14T07:21:30;40.45;;;31.25;;
14348;SDS011;7258;50.376;8.742;2022-10-14T07:23:33;37.73;;;29.83;;
14348;SDS011;7258;50.376;8.742;2022-10-14T07:25:35;39.65;;;29.90;;
14348;SDS011;7258;50.376;8.742;2022-10-14T07:27:38;43.50;;;32.38;;
14348;SDS011;7258;50.376;8.742;2022-10-14T07:29:42;43.80;;;30.25;;
14348;SDS011;7258;50.376;8.742;2022-10-14T07:31:45;36.67;;;29.90;;
14348;SDS011;7258;50.376;8.742;2022-10-14T07:33:48;41.25;;;29.88;;
14348;SDS011;7258;50.376;8.742;2022-10-14T07:35:51;36.20;;;29.08;;
14348;SDS011;7258;50.376;8.742;2022-10-14T07:37:54;37.42;;;29.60;;
14348;SDS011;7258;50.376;8.742;2022-10-14T07:39:57;37.47;;;30.10;;
14348;SDS011;7258;50.376;8.742;2022-10-14T07:42:00;39.13;;;31.08;;
14348;SDS011;7258;50.376;8.742;2022-10-14T07:44:03;41.92;;;30.75;;
14348;SDS011;7258;50.376;8.742;2022-10-14T07:46:10;41.00;;;31.40;;
14348;SDS011;7258;50.376;8.742;2022-10-14T07:48:14;43.67;;;31.75;;
14348;SDS011;7258;50.376;8.742;2022-10-14T07:50:33;37.35;;;30.52;;
14348;SDS011;7258;50.376;8.742;2022-10-14T07:52:36;37.17;;;30.73;;
14348;SDS011;7258;50.376;8.742;2022-10-14T07:54:39;34.78;;;30.75;;
14348;SDS011;7258;50.376;8.742;2022-10-14T07:56:43;36.65;;;29.40;;
14348;SDS011;7258;50.376;8.742;2022-10-14T07:58:46;32.25;;;28.67;;
14348;SDS011;7258;50.376;8.742;2022-10-14T08:00:50;30.70;;;27.33;;
14348;SDS011;7258;50.376;8.742;2022-10-14T08:02:54;32.45;;;28.40;;
14348;SDS011;7258;50.376;8.742;2022-10-14T08:04:57;31.52;;;28.02;;
14348;SDS011;7258;50.376;8.742;2022-10-14T08:07:21;33.75;;;28.20;;
14348;SDS011;7258;50.376;8.742;2022-10-14T08:09:24;33.75;;;27.50;;
14348;SDS011;7258;50.376;8.742;2022-10-14T08:11:32;30.75;;;27.45;;
14348;SDS011;7258;50.376;8.742;2022-10-14T08:13:36;30.90;;;27.65;;
14348;SDS011;7258;50.376;8.742;2022-10-14T08:15:45;31.58;;;28.17;;
14348;SDS011;7258;50.376;8.742;2022-10-14T08:17:48;31.08;;;26.77;;
14348;SDS011;7258;50.376;8.742;2022-10-14T08:19:52;30.45;;;26.17;;
14348;SDS011;7258;50.376;8.742;2022-10-14T08:21:55;29.85;;;26.42;;
14348;SDS011;7258;50.376;8.742;2022-10-14T08:23:57;29.92;;;26.83;;
14348;SDS011;7258;50.376;8.742;2022-10-14T08:26:00;29.08;;;25.98;;
14348;SDS011;7258;50.376;8.742;2022-10-14T08:28:03;30.90;;;26.90;;
14348;SDS011;7258;50.376;8.742;2022-10-14T08:30:09;33.25;;;27.08;;
14348;SDS011;7258;50.376;8.742;2022-10-14T08:32:13;29.83;;;26.75;;
14348;SDS011;7258;50.376;8.742;2022-10-14T08:34:16;31.60;;;28.10;;
14348;SDS011;7258;50.376;8.742;2022-10-14T08:36:22;29.75;;;26.52;;
14348;SDS011;7258;50.376;8.742;2022-10-14T08:38:25;32.17;;;27.92;;
14348;SDS011;7258;50.376;8.742;2022-10-14T08:40:29;30.08;;;26.80;;
14348;SDS011;7258;50.376;8.742;2022-10-14T08:42:47;31.17;;;27.73;;
14348;SDS011;7258;50.376;8.742;2022-10-14T08:44:56;29.63;;;26.73;;
14348;SDS011;7258;50.376;8.742;2022-10-14T08:47:09;29.45;;;26.30;;
14348;SDS011;7258;50.376;8.742;2022-10-14T08:49:16;29.65;;;26.52;;
14348;SDS011;7258;50.376;8.742;2022-10-14T08:51:26;30.08;;;26.98;;
14348;SDS011;7258;50.376;8.742;2022-10-14T08:53:32;30.15;;;26.35;;
14348;SDS011;7258;50.376;8.742;2022-10-14T08:55:40;35.30;;;28.08;;
14348;SDS011;7258;50.376;8.742;2022-10-14T08:57:48;30.75;;;27.23;;
14348;SDS011;7258;50.376;8.742;2022-10-14T08:59:54;29.98;;;26.85;;
14348;SDS011;7258;50.376;8.742;2022-10-14T09:01:58;29.95;;;26.98;;
14348;SDS011;7258;50.376;8.742;2022-10-14T09:04:05;30.73;;;27.15;;
14348;SDS011;7258;50.376;8.742;2022-10-14T09:06:17;30.92;;;27.42;;
14348;SDS011;7258;50.376;8.742;2022-10-14T09:08:28;27.60;;;24.70;;
14348;SDS011;7258;50.376;8.742;2022-10-14T09:10:35;29.15;;;26.02;;
14348;SDS011;7258;50.376;8.742;2022-10-14T09:12:41;28.13;;;25.10;;
14348;SDS011;7258;50.376;8.742;2022-10-14T09:14:44;27.38;;;24.58;;
14348;SDS011;7258;50.376;8.742;2022-10-14T09:16:51;28.55;;;25.05;;
14348;SDS011;7258;50.376;8.742;2022-10-14T09:18:58;29.33;;;25.75;;
14348;SDS011;7258;50.376;8.742;2022-10-14T09:21:07;26.30;;;23.48;;
14348;SDS011;7258;50.376;8.742;2022-10-14T09:23:44;26.73;;;23.13;;
14348;SDS011;7258;50.376;8.742;2022-10-14T09:25:55;25.50;;;22.92;;
14348;SDS011;7258;50.376;8.742;2022-10-14T09:27:59;25.38;;;22.67;;
14348;SDS011;7258;50.376;8.742;2022-10-14T09:30:03;25.00;;;22.50;;
14348;SDS011;7258;50.376;8.742;2022-10-14T09:32:11;23.67;;;21.13;;
14348;SDS011;7258;50.376;8.742;2022-10-14T09:34:17;26.67;;;23.80;;
14348;SDS011;7258;50.376;8.742;2022-10-14T09:36:25;26.08;;;23.38;;
14348;SDS011;7258;50.376;8.742;2022-10-14T09:38:28;25.80;;;23.27;;
14348;SDS011;7258;50.376;8.742;2022-10-14T09:40:33;28.02;;;23.52;;
14348;SDS011;7258;50.376;8.742;2022-10-14T09:42:39;27.10;;;24.30;;
14348;SDS011;7258;50.376;8.742;2022-10-14T09:45:08;28.35;;;25.38;;
14348;SDS011;7258;50.376;8.742;2022-10-14T09:47:13;26.73;;;23.98;;
14348;SDS011;7258;50.376;8.742;2022-10-14T09:49:19;26.73;;;24.00;;
14348;SDS011;7258;50.376;8.742;2022-10-14T09:51:29;27.23;;;24.42;;
14348;SDS011;7258;50.376;8.742;2022-10-14T09:53:35;26.65;;;23.92;;
14348;SDS011;7258;50.376;8.742;2022-10-14T09:55:46;26.95;;;23.67;;
14348;SDS011;7258;50.376;8.742;2022-10-14T09:57:58;24.55;;;21.95;;
14348;SDS011;7258;50.376;8.742;2022-10-14T10:00:23;26.02;;;21.85;;
14348;SDS011;7258;50.376;8.742;2022-10-14T10:02:35;23.83;;;21.48;;
14348;SDS011;7258;50.376;8.742;2022-10-14T10:04:43;22.85;;;20.42;;
14348;SDS011;7258;50.376;8.742;2022-10-14T10:06:49;23.65;;;21.17;;
14348;SDS011;7258;50.376;8.742;2022-10-14T10:08:54;22.38;;;19.52;;
14348;SDS011;7258;50.376;8.742;2022-10-14T10:11:02;21.92;;;19.63;;
14348;SDS011;7258;50.376;8.742;2022-10-14T10:13:19;21.90;;;19.65;;
14348;SDS011;7258;50.376;8.742;2022-10-14T10:15:23;21.33;;;18.17;;
14348;SDS011;7258;50.376;8.742;2022-10-14T10:17:26;19.35;;;17.45;;
14348;SDS011;7258;50.376;8.742;2022-10-14T10:19:33;18.92;;;16.67;;
14348;SDS011;7258;50.376;8.742;2022-10-14T10:21:37;18.48;;;16.30;;
14348;SDS011;7258;50.376;8.742;2022-10-14T10:23:40;17.65;;;15.82;;
14348;SDS011;7258;50.376;8.742;2022-10-14T10:25:52;21.15;;;17.83;;
14348;SDS011;7258;50.376;8.742;2022-10-14T10:27:57;18.42;;;16.58;;
14348;SDS011;7258;50.376;8.742;2022-10-14T10:30:03;19.25;;;17.35;;
14348;SDS011;7258;50.376;8.742;2022-10-14T10:32:22;19.92;;;17.50;;
14348;SDS011;7258;50.376;8.742;2022-10-14T10:37:07;19.67;;;17.02;;
14348;SDS011;7258;50.376;8.742;2022-10-14T10:39:21;20.65;;;16.10;;
14348;SDS011;7258;50.376;8.742;2022-10-14T10:41:39;16.08;;;14.57;;
14348;SDS011;7258;50.376;8.742;2022-10-14T10:43:54;17.27;;;15.52;;
14348;SDS011;7258;50.376;8.742;2022-10-14T10:46:12;17.40;;;14.05;;
14348;SDS011;7258;50.376;8.742;2022-10-14T10:48:28;16.42;;;14.75;;
14348;SDS011;7258;50.376;8.742;2022-10-14T10:50:42;16.35;;;14.50;;
14348;SDS011;7258;50.376;8.742;2022-10-14T10:52:53;14.85;;;13.35;;
14348;SDS011;7258;50.376;8.742;2022-10-14T10:55:05;15.18;;;13.77;;
14348;SDS011;7258;50.376;8.742;2022-10-14T10:57:22;16.20;;;14.65;;
14348;SDS011;7258;50.376;8.742;2022-10-14T10:59:38;15.90;;;14.30;;
14348;SDS011;7258;50.376;8.742;2022-10-14T11:01:52;17.23;;;15.10;;
14348;SDS011;7258;50.376;8.742;2022-10-14T11:04:07;17.90;;;16.08;;
14348;SDS011;7258;50.376;8.742;2022-10-14T11:06:24;17.83;;;15.27;;
14348;SDS011;7258;50.376;8.742;2022-10-14T11:09:08;16.30;;;14.70;;
14348;SDS011;7258;50.376;8.742;2022-10-14T11:11:39;16.55;;;14.70;;
14348;SDS011;7258;50.376;8.742;2022-10-14T11:14:20;18.17;;;14.63;;
14348;SDS011;7258;50.376;8.742;2022-10-14T11:16:35;15.25;;;13.63;;
14348;SDS011;7258;50.376;8.742;2022-10-14T11:18:47;18.05;;;14.82;;
14348;SDS011;7258;50.376;8.742;2022-10-14T11:20:56;15.52;;;13.93;;
14348;SDS011;7258;50.376;8.742;2022-10-14T11:23:28;15.82;;;14.23;;
14348;SDS011;7258;50.376;8.742;2022-10-14T11:25:41;15.82;;;14.00;;
14348;SDS011;7258;50.376;8.742;2022-10-14T11:27:51;15.65;;;14.18;;
14348;SDS011;7258;50.376;8.742;2022-10-14T11:30:03;15.52;;;13.77;;
14348;SDS011;7258;50.376;8.742;2022-10-14T11:32:18;15.52;;;13.85;;
14348;SDS011;7258;50.376;8.742;2022-10-14T11:34:28;15.45;;;13.63;;
14348;SDS011;7258;50.376;8.742;2022-10-14T11:36:44;18.05;;;13.32;;
14348;SDS011;7258;50.376;8.742;2022-10-14T11:39:04;15.93;;;13.20;;
14348;SDS011;7258;50.376;8.742;2022-10-14T11:41:18;16.58;;;13.93;;
14348;SDS011;7258;50.376;8.742;2022-10-14T11:43:31;14.32;;;13.00;;
14348;SDS011;7258;50.376;8.742;2022-10-14T11:45:41;15.23;;;13.73;;
14348;SDS011;7258;50.376;8.742;2022-10-14T11:47:53;15.13;;;13.63;;
14348;SDS011;7258;50.376;8.742;2022-10-14T11:50:11;14.93;;;12.50;;
14348;SDS011;7258;50.376;8.742;2022-10-14T11:52:19;13.93;;;12.55;;
14348;SDS011;7258;50.376;8.742;2022-10-14T11:54:26;13.60;;;12.30;;
14348;SDS011;7258;50.376;8.742;2022-10-14T11:56:36;16.52;;;13.00;;
14348;SDS011;7258;50.376;8.742;2022-10-14T11:58:43;16.02;;;12.27;;
14348;SDS011;7258;50.376;8.742;2022-10-14T12:03:12;13.48;;;12.07;;
14348;SDS011;7258;50.376;8.742;2022-10-14T12:05:24;13.77;;;11.68;;
14348;SDS011;7258;50.376;8.742;2022-10-14T12:07:36;14.48;;;12.95;;
14348;SDS011;7258;50.376;8.742;2022-10-14T12:09:45;15.23;;;13.77;;
14348;SDS011;7258;50.376;8.742;2022-10-14T12:12:00;14.23;;;12.88;;
14348;SDS011;7258;50.376;8.742;2022-10-14T12:14:08;14.02;;;12.63;;
14348;SDS011;7258;50.376;8.742;2022-10-14T12:16:15;13.48;;;11.93;;
14348;SDS011;7258;50.376;8.742;2022-10-14T12:18:21;16.48;;;13.07;;
14348;SDS011;7258;50.376;8.742;2022-10-14T12:20:28;16.85;;;13.07;;
14348;SDS011;7258;50.376;8.742;2022-10-14T12:22:34;14.38;;;12.85;;
14348;SDS011;7258;50.376;8.742;2022-10-14T12:24:40;16.50;;;13.00;;
14348;SDS011;7258;50.376;8.742;2022-10-14T12:26:47;15.85;;;12.70;;
14348;SDS011;7258;50.376;8.742;2022-10-14T12:28:52;14.65;;;13.13;;
14348;SDS011;7258;50.376;8.742;2022-10-14T12:33:35;14.50;;;12.77;;
14348;SDS011;7258;50.376;8.742;2022-10-14T12:36:29;15.30;;;12.70;;
14348;SDS011;7258;50.376;8.742;2022-10-14T12:38:33;16.08;;;12.63;;